Time;durP1;ratioP1;P1;durP2;ratioP2;P2;SDS_P1;SDS_P2;PMS_P1;PMS_P2;Temp;Humidity;BMP_temperature;BMP_pressure;BME280_temperature;BME280_humidity;BME280_pressure;Samples;Min_cycle;Max_cycle;Signal;HPM_P1;HPM_P2
2023/05/10 00:02:18;;;;;;;10.65;8.68;;;7.40;99.90;;;;;;4973894;28;20424;-67
2023/05/10 00:04:45;;;;;;;11.70;7.47;;;7.40;99.90;;;;;;4973639;28;20074;-64
2023/05/10 00:07:12;;;;;;;9.85;8.70;;;7.30;99.90;;;;;;4979498;28;20082;-65
2023/05/10 00:09:39;;;;;;;13.20;7.95;;;7.40;99.90;;;;;;4969369;28;20042;-67
2023/05/10 00:12:06;;;;;;;12.77;8.10;;;7.30;99.90;;;;;;4974917;28;20101;-64
2023/05/10 00:14:33;;;;;;;10.75;7.97;;;7.40;99.90;;;;;;4980539;28;20062;-64
2023/05/10 00:17:00;;;;;;;9.63;7.93;;;7.40;99.90;;;;;;4973643;28;20050;-65
2023/05/10 00:19:27;;;;;;;10.00;7.55;;;7.50;99.90;;;;;;4975487;28;20074;-62
2023/05/10 00:21:54;;;;;;;12.48;6.65;;;7.40;99.90;;;;;;4977192;28;20252;-62
2023/05/10 00:24:21;;;;;;;8.73;7.82;;;7.40;99.90;;;;;;4978546;28;20067;-66
2023/05/10 00:26:47;;;;;;;10.75;8.45;;;7.40;99.90;;;;;;4972631;28;20527;-63
2023/05/10 00:29:14;;;;;;;9.73;7.45;;;7.40;99.90;;;;;;4961048;28;20047;-66
2023/05/10 00:31:41;;;;;;;7.78;7.00;;;7.40;99.90;;;;;;4976963;28;20057;-69
2023/05/10 00:34:09;;;;;;;9.13;8.23;;;7.40;99.90;;;;;;4977572;28;20049;-66
2023/05/10 00:36:35;;;;;;;12.68;7.65;;;7.30;99.90;;;;;;4970865;28;20047;-62
2023/05/10 00:39:03;;;;;;;8.02;7.22;;;7.30;99.90;;;;;;4974239;28;20145;-62
2023/05/10 00:41:33;;;;;;;9.05;7.30;;;7.30;99.90;;;;;;4977766;28;20058;-71
2023/05/10 00:44:01;;;;;;;8.02;7.32;;;7.30;99.90;;;;;;4984637;28;20042;-74
2023/05/10 00:46:29;;;;;;;9.30;8.35;;;7.30;99.90;;;;;;4996093;28;20051;-68
2023/05/10 00:48:56;;;;;;;8.88;7.05;;;7.30;99.90;;;;;;4982978;28;20594;-65
2023/05/10 00:51:23;;;;;;;8.68;7.75;;;7.30;99.90;;;;;;4978046;28;20047;-63
2023/05/10 00:53:51;;;;;;;10.50;7.22;;;7.30;99.90;;;;;;4977938;28;20050;-67
2023/05/10 00:56:20;;;;;;;7.32;6.60;;;7.30;99.90;;;;;;4971574;28;20678;-68
2023/05/10 00:58:47;;;;;;;9.38;7.55;;;7.30;99.90;;;;;;4972918;28;20451;-64
2023/05/10 01:01:14;;;;;;;8.20;7.40;;;7.20;99.90;;;;;;4976919;28;20524;-69
2023/05/10 01:03:41;;;;;;;8.95;7.22;;;7.20;99.90;;;;;;4974861;28;20059;-63
2023/05/10 01:06:09;;;;;;;10.73;8.23;;;7.20;99.90;;;;;;4978501;28;20134;-63
2023/05/10 01:08:36;;;;;;;9.00;7.65;;;7.20;99.90;;;;;;4977520;28;20097;-74
2023/05/10 01:11:03;;;;;;;11.80;7.43;;;7.20;99.90;;;;;;4982156;28;20539;-64
2023/05/10 01:13:35;;;;;;;8.40;7.60;;;7.10;99.90;;;;;;4993047;28;20148;-65
2023/05/10 01:16:03;;;;;;;8.05;7.25;;;7.10;99.90;;;;;;4990465;28;20068;-62
2023/05/10 01:18:39;;;;;;;9.23;8.25;;;7.20;99.90;;;;;;4978630;28;20799;-63
2023/05/10 01:21:48;;;;;;;11.20;6.90;;;7.20;99.90;;;;;;4980253;28;20130;-62
2023/05/10 01:25:04;;;;;;;8.70;5.97;;;7.10;99.90;;;;;;4992389;28;20158;-63
2023/05/10 01:27:52;;;;;;;7.03;6.28;;;7.10;99.90;;;;;;4973613;28;20073;-65
2023/05/10 01:30:33;;;;;;;13.07;8.45;;;7.10;99.90;;;;;;4973766;28;20062;-62
2023/05/10 01:33:18;;;;;;;9.98;8.52;;;7.10;99.90;;;;;;4989819;28;20054;-63
2023/05/10 01:36:14;;;;;;;11.80;7.72;;;7.10;99.90;;;;;;4978675;28;20176;-65
2023/05/10 01:39:24;;;;;;;8.27;6.95;;;7.00;99.90;;;;;;4976819;28;20101;-69
2023/05/10 01:41:57;;;;;;;8.48;7.43;;;7.00;99.90;;;;;;4973081;28;20051;-62
2023/05/10 01:44:34;;;;;;;13.57;7.95;;;7.00;99.90;;;;;;4977239;28;20382;-75
2023/05/10 01:47:11;;;;;;;11.23;7.63;;;6.90;99.90;;;;;;4976854;28;20141;-68
2023/05/10 01:49:51;;;;;;;11.50;8.50;;;6.90;99.90;;;;;;4994576;28;20042;-74
2023/05/10 01:52:22;;;;;;;9.43;7.95;;;6.90;99.90;;;;;;4973981;28;20452;-65
2023/05/10 01:54:55;;;;;;;7.80;7.07;;;6.90;99.90;;;;;;4973629;28;20053;-74
2023/05/10 01:57:25;;;;;;;7.85;7.10;;;6.90;99.90;;;;;;4981570;28;20050;-65
2023/05/10 01:59:54;;;;;;;8.98;6.97;;;6.90;99.90;;;;;;4968897;28;20053;-68
2023/05/10 02:02:23;;;;;;;9.10;8.18;;;6.90;99.90;;;;;;4977659;28;20061;-63
2023/05/10 02:04:51;;;;;;;11.07;7.75;;;6.80;99.90;;;;;;4975959;28;20062;-66
2023/05/10 02:07:18;;;;;;;9.43;7.85;;;6.80;99.90;;;;;;4975437;28;20088;-68
2023/05/10 02:09:47;;;;;;;8.00;7.03;;;6.90;99.90;;;;;;4975393;28;20134;-63
2023/05/10 02:12:15;;;;;;;11.82;7.43;;;6.90;99.90;;;;;;4966732;28;20066;-67
2023/05/10 02:14:44;;;;;;;8.10;6.75;;;6.80;99.90;;;;;;4974169;28;20471;-66
2023/05/10 02:17:11;;;;;;;7.95;5.68;;;6.80;99.90;;;;;;4977166;28;20069;-61
2023/05/10 02:19:41;;;;;;;7.38;6.13;;;6.80;99.90;;;;;;4982431;28;20050;-66
2023/05/10 02:22:09;;;;;;;8.00;7.05;;;6.80;99.90;;;;;;4977784;28;20054;-64
2023/05/10 02:24:38;;;;;;;12.60;8.20;;;6.80;99.90;;;;;;4972837;28;20822;-73
2023/05/10 02:27:06;;;;;;;12.25;7.80;;;6.70;99.90;;;;;;4979433;28;20042;-62
2023/05/10 02:29:35;;;;;;;8.73;7.63;;;6.70;99.90;;;;;;4971791;28;20090;-65
2023/05/10 02:32:03;;;;;;;9.93;7.57;;;6.70;99.90;;;;;;4973635;28;20145;-67
2023/05/10 02:34:31;;;;;;;11.45;6.28;;;6.70;99.90;;;;;;4979661;28;20420;-63
2023/05/10 02:36:59;;;;;;;8.05;7.25;;;6.70;99.90;;;;;;4977564;28;20138;-66
2023/05/10 02:39:28;;;;;;;8.20;6.85;;;6.80;99.90;;;;;;4974152;28;20042;-64
2023/05/10 02:41:57;;;;;;;12.65;7.53;;;6.70;99.90;;;;;;4972926;28;20046;-64
2023/05/10 02:44:27;;;;;;;7.82;7.07;;;6.80;99.90;;;;;;4976366;28;20418;-66
2023/05/10 02:46:55;;;;;;;8.73;6.78;;;6.80;99.90;;;;;;4986090;28;20046;-62
2023/05/10 02:49:22;;;;;;;9.70;6.95;;;6.80;99.90;;;;;;4974659;28;20062;-68
2023/05/10 02:51:56;;;;;;;9.40;6.72;;;6.90;99.90;;;;;;4995776;28;20093;-62
2023/05/10 02:54:30;;;;;;;9.50;7.25;;;6.90;99.90;;;;;;4976019;28;20133;-63
2023/05/10 02:57:00;;;;;;;11.15;7.30;;;7.00;99.90;;;;;;4991886;28;20057;-67
2023/05/10 02:59:27;;;;;;;11.45;7.50;;;7.00;99.90;;;;;;4971066;28;20100;-61
2023/05/10 03:01:54;;;;;;;8.98;6.68;;;7.00;99.90;;;;;;4987804;28;20048;-61
2023/05/10 03:04:21;;;;;;;8.70;7.38;;;7.00;99.90;;;;;;4975780;28;20061;-61
2023/05/10 03:06:49;;;;;;;7.53;6.55;;;7.00;99.90;;;;;;4975350;28;20179;-60
2023/05/10 03:09:16;;;;;;;8.95;6.53;;;7.00;99.90;;;;;;4980164;28;20046;-63
2023/05/10 03:11:45;;;;;;;10.48;7.80;;;7.00;99.90;;;;;;4973941;28;20053;-64
2023/05/10 03:14:34;;;;;;;10.05;6.43;;;7.10;99.90;;;;;;4977213;28;20064;-59
2023/05/10 03:17:05;;;;;;;7.32;6.63;;;7.10;99.90;;;;;;4982273;28;20061;-65
2023/05/10 03:19:56;;;;;;;13.82;8.27;;;7.10;99.90;;;;;;4976226;28;20051;-65
2023/05/10 03:22:37;;;;;;;8.30;7.18;;;7.10;99.90;;;;;;4993304;28;20066;-62
2023/05/10 03:25:08;;;;;;;12.75;7.88;;;7.20;99.90;;;;;;4973845;28;20141;-64
2023/05/10 03:27:38;;;;;;;8.25;7.28;;;7.10;99.90;;;;;;4959620;28;20055;-64
2023/05/10 03:30:07;;;;;;;10.38;7.35;;;7.20;99.90;;;;;;4970852;28;20090;-65
2023/05/10 03:32:34;;;;;;;10.00;9.00;;;7.20;99.90;;;;;;4961487;28;20058;-68
2023/05/10 03:35:09;;;;;;;9.68;7.35;;;7.20;99.90;;;;;;4972317;28;20057;-70
2023/05/10 03:37:36;;;;;;;14.02;7.85;;;7.20;99.90;;;;;;4973133;28;20131;-64
2023/05/10 03:40:05;;;;;;;11.30;6.97;;;7.20;99.90;;;;;;4969490;28;20058;-62
2023/05/10 03:42:34;;;;;;;13.25;7.68;;;7.20;99.90;;;;;;4987015;28;20380;-61
2023/05/10 03:45:01;;;;;;;11.52;7.63;;;7.20;99.90;;;;;;4971599;28;20142;-62
2023/05/10 03:47:29;;;;;;;11.93;7.75;;;7.20;99.90;;;;;;4972250;28;20428;-61
2023/05/10 03:49:57;;;;;;;10.35;7.18;;;7.30;99.90;;;;;;4975644;28;20165;-64
2023/05/10 03:52:24;;;;;;;7.20;6.45;;;7.30;99.90;;;;;;4973227;28;20585;-61
2023/05/10 03:54:51;;;;;;;8.70;7.13;;;7.30;99.90;;;;;;4976451;28;20056;-63
2023/05/10 03:57:17;;;;;;;14.02;7.15;;;7.40;99.90;;;;;;4990037;28;20406;-71
2023/05/10 03:59:45;;;;;;;9.52;7.32;;;7.40;99.90;;;;;;4982425;28;20055;-63
2023/05/10 04:02:12;;;;;;;8.10;6.80;;;7.40;99.90;;;;;;4976814;28;20496;-62
2023/05/10 04:04:38;;;;;;;10.10;7.78;;;7.40;99.90;;;;;;4972531;28;20089;-65
2023/05/10 04:07:05;;;;;;;10.77;7.07;;;7.50;99.90;;;;;;4981495;28;20042;-62
2023/05/10 04:09:33;;;;;;;11.07;7.15;;;7.50;99.90;;;;;;4981175;28;20456;-72
2023/05/10 04:12:02;;;;;;;9.15;7.47;;;7.60;99.90;;;;;;4979249;28;20137;-63
2023/05/10 04:14:29;;;;;;;8.43;7.68;;;7.70;99.90;;;;;;4978408;28;20097;-67
2023/05/10 04:16:56;;;;;;;10.68;6.88;;;7.80;99.90;;;;;;4977609;28;20081;-66
2023/05/10 04:19:23;;;;;;;14.85;7.35;;;7.80;99.90;;;;;;4977721;28;20055;-65
2023/05/10 04:21:50;;;;;;;11.63;7.13;;;7.80;99.90;;;;;;4976763;28;20085;-66
2023/05/10 04:24:16;;;;;;;9.07;6.60;;;8.00;99.90;;;;;;4976087;28;20065;-69
2023/05/10 04:26:43;;;;;;;7.70;6.38;;;8.00;99.90;;;;;;4979323;28;20050;-65
2023/05/10 04:29:10;;;;;;;11.93;6.88;;;8.00;99.90;;;;;;4979263;28;20046;-62
2023/05/10 04:31:37;;;;;;;10.85;7.32;;;8.00;99.90;;;;;;4979830;28;20133;-68
2023/05/10 04:34:04;;;;;;;13.05;6.80;;;8.10;99.90;;;;;;4972309;28;20083;-68
2023/05/10 04:36:33;;;;;;;8.05;6.80;;;8.10;99.90;;;;;;4983686;28;20431;-71
2023/05/10 04:39:00;;;;;;;11.52;7.15;;;8.20;99.90;;;;;;4978751;28;20059;-63
2023/05/10 04:41:27;;;;;;;8.90;6.07;;;8.30;99.90;;;;;;4984052;28;20475;-64
2023/05/10 04:43:54;;;;;;;6.78;6.05;;;8.40;99.90;;;;;;4986379;28;20072;-60
2023/05/10 04:46:21;;;;;;;7.63;5.72;;;8.50;99.90;;;;;;4981064;28;20058;-65
2023/05/10 04:48:48;;;;;;;8.85;5.95;;;8.60;99.90;;;;;;4974677;28;20047;-62
2023/05/10 04:51:15;;;;;;;7.97;6.10;;;8.70;99.90;;;;;;4984611;28;20540;-60
2023/05/10 04:53:42;;;;;;;6.50;5.32;;;8.90;99.90;;;;;;4982409;28;20488;-67
2023/05/10 04:56:20;;;;;;;7.68;6.75;;;9.00;99.90;;;;;;4979604;28;20058;-60
2023/05/10 04:58:46;;;;;;;10.95;6.03;;;9.00;99.90;;;;;;4987297;28;20053;-65
2023/05/10 05:01:13;;;;;;;11.60;6.30;;;9.20;99.90;;;;;;4979709;28;20401;-61
2023/05/10 05:03:40;;;;;;;13.60;5.55;;;9.20;99.90;;;;;;4982132;28;20525;-70
2023/05/10 05:06:07;;;;;;;11.15;5.60;;;9.30;99.90;;;;;;4967703;28;20086;-68
2023/05/10 05:08:34;;;;;;;9.48;5.95;;;9.40;99.90;;;;;;4974120;28;20073;-60
2023/05/10 05:11:01;;;;;;;7.68;5.55;;;9.50;99.90;;;;;;4982025;28;20133;-63
2023/05/10 05:13:28;;;;;;;7.85;5.90;;;9.60;99.90;;;;;;4984819;28;20465;-71
2023/05/10 05:15:55;;;;;;;9.93;6.38;;;9.60;99.90;;;;;;4978750;28;20043;-68
2023/05/10 05:18:22;;;;;;;5.97;4.97;;;9.70;99.90;;;;;;4978005;28;20427;-61
2023/05/10 05:20:49;;;;;;;6.43;4.80;;;9.90;99.90;;;;;;4971565;28;20051;-69
2023/05/10 05:23:16;;;;;;;7.22;4.78;;;10.10;99.90;;;;;;4977888;28;20563;-61
2023/05/10 05:25:43;;;;;;;10.07;5.30;;;10.10;99.90;;;;;;4978623;28;20054;-64
2023/05/10 05:28:10;;;;;;;7.68;6.28;;;10.30;99.90;;;;;;4982080;28;20054;-65
2023/05/10 05:30:36;;;;;;;7.85;4.28;;;10.40;99.90;;;;;;4972602;28;20069;-66
2023/05/10 05:33:03;;;;;;;9.90;5.13;;;10.50;99.90;;;;;;4976283;28;20043;-64
2023/05/10 05:35:30;;;;;;;13.57;6.03;;;10.70;99.90;;;;;;4992459;28;20422;-65
2023/05/10 05:37:57;;;;;;;10.88;5.47;;;10.80;99.90;;;;;;4983046;28;20058;-63
2023/05/10 05:40:24;;;;;;;10.43;4.85;;;10.90;99.90;;;;;;4976334;28;20064;-64
2023/05/10 05:42:51;;;;;;;7.18;4.70;;;11.00;99.90;;;;;;4973808;28;20065;-66
2023/05/10 05:45:18;;;;;;;10.48;5.57;;;11.20;99.90;;;;;;4978691;28;20054;-61
2023/05/10 05:47:45;;;;;;;12.32;3.70;;;11.30;99.90;;;;;;4984585;28;20497;-63
2023/05/10 05:50:12;;;;;;;8.02;4.75;;;11.40;99.90;;;;;;4975607;28;20137;-61
2023/05/10 05:52:39;;;;;;;7.60;4.57;;;11.40;99.90;;;;;;4976637;28;20046;-61
2023/05/10 05:55:06;;;;;;;5.20;3.97;;;11.50;99.70;;;;;;4977240;28;20046;-67
2023/05/10 05:57:33;;;;;;;7.53;3.80;;;11.60;99.30;;;;;;4976642;28;20947;-61
2023/05/10 06:00:00;;;;;;;4.00;3.33;;;11.70;98.90;;;;;;4969872;28;20042;-62
2023/05/10 06:02:27;;;;;;;7.00;4.00;;;11.90;97.90;;;;;;4977196;28;20137;-65
2023/05/10 06:04:54;;;;;;;9.65;4.18;;;12.10;98.10;;;;;;4978780;28;22987;-61
2023/05/10 06:07:21;;;;;;;5.07;3.38;;;12.20;98.30;;;;;;4980159;28;20053;-62
2023/05/10 06:09:48;;;;;;;9.85;4.45;;;12.30;97.10;;;;;;4975615;28;20564;-67
2023/05/10 06:12:15;;;;;;;6.45;3.33;;;12.50;97.40;;;;;;4982823;28;20086;-60
2023/05/10 06:14:41;;;;;;;7.28;4.13;;;12.50;97.20;;;;;;4972796;28;20051;-66
2023/05/10 06:17:08;;;;;;;4.13;3.30;;;12.60;96.80;;;;;;4978240;28;20512;-63
2023/05/10 06:19:36;;;;;;;3.85;3.45;;;12.80;96.20;;;;;;4984278;28;20082;-61
2023/05/10 06:22:03;;;;;;;5.78;3.92;;;12.90;95.80;;;;;;4977913;28;20102;-64
2023/05/10 06:24:30;;;;;;;5.07;3.70;;;13.00;95.50;;;;;;4981984;28;20452;-62
2023/05/10 06:26:59;;;;;;;4.00;3.17;;;13.20;95.40;;;;;;4970049;28;20078;-64
2023/05/10 06:29:26;;;;;;;4.13;3.07;;;13.40;94.40;;;;;;4979296;28;20058;-61
2023/05/10 06:31:54;;;;;;;3.13;2.58;;;13.50;94.00;;;;;;4974751;28;20065;-62
2023/05/10 06:34:20;;;;;;;3.50;3.13;;;13.70;93.30;;;;;;4969990;28;20042;-64
2023/05/10 06:36:47;;;;;;;3.85;3.15;;;13.80;93.10;;;;;;4973752;28;20061;-62
2023/05/10 06:39:14;;;;;;;4.57;3.42;;;13.90;92.00;;;;;;4977571;28;20155;-63
2023/05/10 06:41:41;;;;;;;4.55;2.70;;;14.00;92.10;;;;;;4977345;28;20420;-64
2023/05/10 06:44:08;;;;;;;6.25;3.45;;;14.10;92.00;;;;;;4979645;28;20061;-65
2023/05/10 06:46:35;;;;;;;5.85;4.15;;;14.10;92.10;;;;;;4974775;28;20051;-62
2023/05/10 06:49:02;;;;;;;6.18;3.95;;;14.20;91.20;;;;;;4977557;28;20412;-68
2023/05/10 06:51:28;;;;;;;3.55;3.25;;;14.40;91.20;;;;;;4977718;28;20588;-67
2023/05/10 06:53:55;;;;;;;3.97;2.95;;;14.40;91.30;;;;;;4977437;28;20057;-60
2023/05/10 06:56:22;;;;;;;3.78;3.00;;;14.50;90.80;;;;;;4979346;28;20133;-64
2023/05/10 06:58:49;;;;;;;4.03;3.70;;;14.50;90.20;;;;;;4977276;28;20054;-68
2023/05/10 07:01:16;;;;;;;4.82;2.92;;;14.60;90.90;;;;;;4978363;28;20517;-62
2023/05/10 07:03:43;;;;;;;6.97;3.40;;;14.70;91.60;;;;;;4983031;28;20046;-62
2023/05/10 07:06:10;;;;;;;4.10;3.15;;;14.80;91.30;;;;;;4977774;28;20129;-62
2023/05/10 07:08:51;;;;;;;3.20;2.70;;;15.00;90.30;;;;;;4970473;28;20070;-64
2023/05/10 07:11:18;;;;;;;6.32;3.20;;;15.10;88.40;;;;;;4978718;28;20054;-62
2023/05/10 07:13:46;;;;;;;4.03;3.25;;;15.20;85.70;;;;;;4976007;28;20473;-61
2023/05/10 07:16:13;;;;;;;2.90;2.60;;;15.20;84.40;;;;;;4977295;28;20043;-75
2023/05/10 07:18:40;;;;;;;3.15;2.92;;;15.30;84.70;;;;;;4976032;28;20058;-73
2023/05/10 07:21:06;;;;;;;5.30;2.80;;;15.40;85.40;;;;;;4973250;28;20081;-61
2023/05/10 07:23:33;;;;;;;6.05;2.83;;;15.40;87.40;;;;;;4980400;28;20046;-63
2023/05/10 07:26:01;;;;;;;4.22;3.45;;;15.50;84.90;;;;;;4977493;28;20524;-69
2023/05/10 07:28:28;;;;;;;4.05;3.10;;;15.60;83.30;;;;;;4977440;28;20845;-66
2023/05/10 07:30:55;;;;;;;7.78;3.45;;;15.70;82.80;;;;;;4978000;28;20488;-62
2023/05/10 07:33:22;;;;;;;4.05;2.92;;;15.70;80.10;;;;;;4972634;28;20050;-65
2023/05/10 07:35:50;;;;;;;11.50;2.97;;;15.80;80.80;;;;;;4978432;28;20428;-66
2023/05/10 07:38:17;;;;;;;7.00;2.67;;;15.90;80.30;;;;;;4980624;28;20057;-64
2023/05/10 07:40:44;;;;;;;4.90;3.40;;;16.00;79.80;;;;;;4975549;28;20062;-66
2023/05/10 07:43:10;;;;;;;2.85;2.55;;;16.10;80.10;;;;;;4978438;28;20046;-62
2023/05/10 07:45:37;;;;;;;4.68;2.38;;;16.10;80.40;;;;;;4974644;28;20382;-66
2023/05/10 07:48:04;;;;;;;6.18;2.72;;;16.20;80.30;;;;;;4981265;28;20145;-63
2023/05/10 07:50:31;;;;;;;5.20;2.88;;;16.30;81.70;;;;;;4985088;28;20042;-62
2023/05/10 07:52:58;;;;;;;8.00;3.47;;;16.40;80.10;;;;;;4983296;28;20511;-61
2023/05/10 07:55:26;;;;;;;3.78;2.78;;;16.40;81.00;;;;;;4979719;28;20823;-69
2023/05/10 07:57:52;;;;;;;5.07;3.85;;;16.50;79.60;;;;;;4975852;28;20054;-62
2023/05/10 08:00:20;;;;;;;3.83;2.95;;;16.60;79.50;;;;;;4978113;28;20078;-64
2023/05/10 08:02:47;;;;;;;3.25;2.50;;;16.60;78.60;;;;;;4973582;28;20046;-70
2023/05/10 08:05:14;;;;;;;8.20;2.85;;;16.80;75.90;;;;;;4980926;28;20050;-66
2023/05/10 08:07:42;;;;;;;4.13;2.60;;;16.70;77.40;;;;;;4975631;28;20046;-65
2023/05/10 08:10:10;;;;;;;4.85;2.83;;;16.80;77.30;;;;;;4984204;28;20484;-67
2023/05/10 08:12:38;;;;;;;3.40;2.72;;;16.90;76.40;;;;;;4978748;28;20051;-70
2023/05/10 08:15:06;;;;;;;4.25;3.72;;;17.00;76.10;;;;;;4982142;28;20707;-61
2023/05/10 08:17:33;;;;;;;2.90;2.55;;;17.00;75.40;;;;;;4985614;28;20166;-68
2023/05/10 08:20:00;;;;;;;5.00;2.50;;;17.00;74.70;;;;;;4983320;28;20057;-66
2023/05/10 08:22:27;;;;;;;9.23;2.95;;;17.10;72.50;;;;;;4979499;28;20457;-61
2023/05/10 08:24:54;;;;;;;5.00;2.63;;;17.20;73.10;;;;;;4983190;28;20538;-65
2023/05/10 08:27:21;;;;;;;5.22;3.13;;;17.30;74.20;;;;;;4979318;28;20735;-66
2023/05/10 08:29:47;;;;;;;8.68;4.35;;;17.30;73.30;;;;;;4978010;28;20046;-63
2023/05/10 08:32:16;;;;;;;4.45;3.00;;;17.40;72.20;;;;;;4982028;28;20043;-65
2023/05/10 08:34:43;;;;;;;9.18;3.72;;;17.40;72.60;;;;;;4976442;28;20394;-62
2023/05/10 08:37:12;;;;;;;2.70;2.47;;;17.50;72.70;;;;;;4980319;28;20050;-64
2023/05/10 08:39:40;;;;;;;5.38;2.15;;;17.50;71.20;;;;;;4973627;28;20086;-65
2023/05/10 08:42:08;;;;;;;5.85;3.15;;;17.50;71.60;;;;;;4975789;28;20050;-65
2023/05/10 08:44:36;;;;;;;4.05;2.65;;;17.60;71.50;;;;;;4976592;28;20049;-62
2023/05/10 08:47:08;;;;;;;8.82;2.75;;;17.80;71.00;;;;;;4978273;28;20137;-68
2023/05/10 08:49:37;;;;;;;5.45;2.40;;;17.80;69.10;;;;;;4980495;28;20051;-62
2023/05/10 08:52:05;;;;;;;5.68;2.67;;;17.80;67.60;;;;;;4978347;28;20512;-67
2023/05/10 08:54:33;;;;;;;4.72;2.05;;;17.80;69.00;;;;;;4978857;28;20591;-63
2023/05/10 08:57:00;;;;;;;4.13;2.25;;;17.80;67.80;;;;;;4984188;28;20141;-66
2023/05/10 08:59:27;;;;;;;4.05;2.88;;;17.90;67.90;;;;;;4980175;28;20402;-61
2023/05/10 09:01:57;;;;;;;3.38;2.25;;;17.80;67.10;;;;;;4977174;28;20409;-62
2023/05/10 09:04:24;;;;;;;3.80;3.50;;;18.00;68.80;;;;;;4977789;28;20389;-62
2023/05/10 09:06:52;;;;;;;2.70;2.40;;;18.10;67.80;;;;;;4978577;28;20058;-64
2023/05/10 09:09:20;;;;;;;9.35;3.10;;;18.00;66.90;;;;;;4977820;28;20043;-63
2023/05/10 09:11:47;;;;;;;6.95;3.72;;;18.10;67.70;;;;;;4983038;28;20533;-61
2023/05/10 09:14:15;;;;;;;6.40;2.42;;;18.20;68.50;;;;;;4986509;28;20038;-72
2023/05/10 09:16:42;;;;;;;3.38;2.30;;;18.30;67.50;;;;;;4980988;28;20116;-65
2023/05/10 09:19:09;;;;;;;3.90;2.38;;;18.40;66.90;;;;;;4980043;28;20050;-67
2023/05/10 09:21:39;;;;;;;7.70;2.80;;;18.40;66.00;;;;;;4980158;28;20046;-66
2023/05/10 09:24:08;;;;;;;13.10;3.25;;;18.50;64.80;;;;;;4975296;28;20122;-62
2023/05/10 09:26:35;;;;;;;4.75;3.03;;;18.40;65.70;;;;;;4980381;28;20113;-63
2023/05/10 09:29:03;;;;;;;4.15;2.90;;;18.40;66.40;;;;;;4983308;28;20518;-64
2023/05/10 09:31:48;;;;;;;7.05;4.22;;;18.40;65.00;;;;;;4976683;28;20051;-65
2023/05/10 09:34:19;;;;;;;4.22;2.78;;;18.40;65.50;;;;;;4977334;28;20086;-67
2023/05/10 09:36:58;;;;;;;2.95;2.58;;;18.50;66.20;;;;;;4975712;28;20129;-62
2023/05/10 09:39:37;;;;;;;10.80;2.80;;;18.60;65.00;;;;;;4975240;28;20556;-64
2023/05/10 09:42:06;;;;;;;3.35;2.13;;;18.80;66.60;;;;;;4968693;28;20042;-65
2023/05/10 09:44:34;;;;;;;8.95;2.63;;;18.80;64.70;;;;;;4976054;28;20054;-64
2023/05/10 09:47:02;;;;;;;5.13;3.13;;;18.80;63.60;;;;;;4979708;28;20061;-69
2023/05/10 09:49:29;;;;;;;3.50;2.63;;;18.80;63.80;;;;;;4981848;28;20711;-62
2023/05/10 09:52:07;;;;;;;3.33;2.15;;;18.80;63.70;;;;;;4977739;28;20472;-65
2023/05/10 09:54:34;;;;;;;5.40;2.55;;;18.90;64.10;;;;;;4979180;28;20376;-62
2023/05/10 09:57:02;;;;;;;5.03;2.70;;;18.90;64.60;;;;;;4976722;28;20496;-61
2023/05/10 09:59:29;;;;;;;4.03;1.90;;;19.00;64.50;;;;;;4975352;28;20058;-67
2023/05/10 10:01:57;;;;;;;3.92;1.98;;;19.00;63.00;;;;;;4980120;28;20301;-66
2023/05/10 10:04:25;;;;;;;4.03;1.92;;;18.90;64.20;;;;;;4978517;28;20065;-62
2023/05/10 10:07:03;;;;;;;3.42;2.28;;;19.10;65.10;;;;;;4974249;28;20572;-67
2023/05/10 10:09:32;;;;;;;4.30;2.60;;;19.20;64.10;;;;;;4978028;28;20113;-63
2023/05/10 10:12:03;;;;;;;5.70;2.25;;;19.30;64.10;;;;;;4973420;28;20089;-63
2023/05/10 10:14:30;;;;;;;2.58;2.20;;;19.40;64.20;;;;;;4980960;28;20092;-64
2023/05/10 10:17:00;;;;;;;2.28;2.13;;;19.40;61.90;;;;;;4981929;28;20544;-62
2023/05/10 10:19:35;;;;;;;2.75;2.47;;;19.30;63.00;;;;;;4981335;28;20050;-63
2023/05/10 10:22:02;;;;;;;5.75;2.15;;;19.10;63.60;;;;;;4975671;28;20058;-62
2023/05/10 10:24:29;;;;;;;7.45;2.95;;;19.20;63.60;;;;;;4974277;28;20061;-62
2023/05/10 10:27:14;;;;;;;8.02;3.20;;;19.20;62.20;;;;;;4976549;28;20042;-62
2023/05/10 10:30:13;;;;;;;3.95;3.55;;;19.20;62.20;;;;;;4980182;28;20813;-66
2023/05/10 10:33:02;;;;;;;2.70;2.10;;;19.30;62.30;;;;;;4973152;28;20058;-65
2023/05/10 10:35:39;;;;;;;2.97;2.15;;;19.30;63.00;;;;;;4977552;28;20065;-68
2023/05/10 10:38:08;;;;;;;6.53;2.58;;;19.40;61.90;;;;;;4983467;28;20050;-61
2023/05/10 10:40:35;;;;;;;2.80;2.50;;;19.40;62.80;;;;;;4977190;28;20046;-65
2023/05/10 10:43:20;;;;;;;5.75;2.58;;;19.30;62.50;;;;;;4979769;28;20042;-61
2023/05/10 10:46:12;;;;;;;6.43;2.33;;;19.50;63.90;;;;;;4979346;28;20137;-68
2023/05/10 10:48:51;;;;;;;3.55;2.25;;;19.60;62.30;;;;;;4975797;28;20508;-70
2023/05/10 10:51:18;;;;;;;2.75;1.70;;;19.70;63.30;;;;;;4982269;28;20143;-61
2023/05/10 10:53:47;;;;;;;4.15;2.25;;;19.70;62.60;;;;;;4980707;28;20404;-67
2023/05/10 10:56:15;;;;;;;5.38;2.47;;;19.70;62.30;;;;;;4985121;28;20088;-73
2023/05/10 10:58:51;;;;;;;4.25;2.38;;;19.70;63.30;;;;;;4978078;28;20050;-69
2023/05/10 11:01:19;;;;;;;4.28;2.63;;;19.80;63.80;;;;;;4980190;28;20473;-62
2023/05/10 11:04:15;;;;;;;3.63;2.90;;;19.80;62.00;;;;;;4978538;28;20069;-67
2023/05/10 11:06:42;;;;;;;3.50;2.55;;;19.90;63.90;;;;;;4973617;28;20047;-64
2023/05/10 11:09:11;;;;;;;8.57;2.88;;;19.80;61.80;;;;;;4970738;28;20055;-63
2023/05/10 11:11:58;;;;;;;4.50;2.10;;;19.70;61.40;;;;;;4983295;28;20504;-66
2023/05/10 11:14:25;;;;;;;4.78;2.10;;;19.70;62.70;;;;;;4976391;28;20170;-66
2023/05/10 11:16:52;;;;;;;8.57;2.50;;;19.60;61.30;;;;;;4969856;28;20436;-64
2023/05/10 11:19:19;;;;;;;7.57;2.40;;;19.60;61.40;;;;;;4977316;28;20493;-70
2023/05/10 11:22:15;;;;;;;4.05;2.08;;;19.70;61.40;;;;;;4985371;28;20544;-65
2023/05/10 11:24:57;;;;;;;9.27;2.75;;;19.80;61.70;;;;;;4966809;28;20060;-69
2023/05/10 11:27:24;;;;;;;3.72;2.15;;;19.70;61.20;;;;;;4974165;28;20101;-65
2023/05/10 11:29:52;;;;;;;2.85;2.65;;;19.70;63.00;;;;;;4977947;28;20050;-73
2023/05/10 11:32:19;;;;;;;4.10;1.90;;;19.90;62.40;;;;;;4971125;28;20717;-71
2023/05/10 11:34:48;;;;;;;4.05;2.03;;;20.00;61.90;;;;;;4966755;28;20054;-62
2023/05/10 11:37:14;;;;;;;2.53;2.33;;;20.10;60.50;;;;;;4968741;28;20042;-66
2023/05/10 11:39:47;;;;;;;3.22;2.42;;;19.80;59.90;;;;;;4973145;28;20042;-64
2023/05/10 11:42:14;;;;;;;3.83;2.17;;;19.70;61.70;;;;;;4977864;28;20437;-64
2023/05/10 11:44:41;;;;;;;4.88;2.67;;;19.60;61.40;;;;;;4975235;28;20062;-63
2023/05/10 11:47:08;;;;;;;4.25;2.50;;;19.80;62.50;;;;;;4975418;28;20476;-65
2023/05/10 11:49:35;;;;;;;3.05;2.10;;;19.80;60.70;;;;;;4978637;28;20465;-63
2023/05/10 11:52:08;;;;;;;35.38;4.88;;;19.60;61.70;;;;;;4978578;28;20065;-61
2023/05/10 11:54:35;;;;;;;6.03;2.78;;;19.80;60.60;;;;;;4978952;28;20577;-63
2023/05/10 11:57:03;;;;;;;5.32;2.00;;;19.80;60.80;;;;;;4975695;28;20085;-64
2023/05/10 11:59:30;;;;;;;1.80;1.70;;;19.90;60.80;;;;;;4972572;28;20057;-63
2023/05/10 12:01:57;;;;;;;3.88;2.30;;;19.90;61.80;;;;;;4979432;28;20132;-62
2023/05/10 12:04:25;;;;;;;3.45;2.30;;;20.00;60.80;;;;;;4974082;28;20145;-64
2023/05/10 12:06:52;;;;;;;2.65;2.10;;;20.00;63.00;;;;;;4977550;28;20054;-63
2023/05/10 12:09:19;;;;;;;4.40;2.83;;;19.80;59.30;;;;;;4974652;28;20054;-63
2023/05/10 12:12:05;;;;;;;2.22;1.88;;;19.70;60.90;;;;;;4978946;28;20134;-61
2023/05/10 12:14:35;;;;;;;4.28;2.30;;;19.80;60.90;;;;;;4975834;28;20050;-63
2023/05/10 12:17:02;;;;;;;7.65;2.50;;;19.80;59.90;;;;;;4975109;28;20497;-61
2023/05/10 12:19:37;;;;;;;3.75;2.47;;;20.10;61.10;;;;;;4975265;28;20089;-62
2023/05/10 12:22:07;;;;;;;4.20;2.80;;;19.90;60.40;;;;;;4977013;28;20612;-64
2023/05/10 12:24:36;;;;;;;4.78;2.42;;;20.00;61.10;;;;;;4977238;28;20558;-64
2023/05/10 12:27:07;;;;;;;4.07;2.17;;;20.00;60.80;;;;;;4974435;28;20093;-63
2023/05/10 12:29:52;;;;;;;3.30;2.60;;;20.10;61.00;;;;;;4977094;28;20049;-64
2023/05/10 12:32:40;;;;;;;2.10;1.90;;;20.00;59.20;;;;;;4973061;28;20200;-63
2023/05/10 12:35:08;;;;;;;4.05;2.65;;;19.80;59.70;;;;;;4975517;28;20047;-66
2023/05/10 12:37:38;;;;;;;4.38;2.22;;;20.00;61.90;;;;;;4982441;28;20047;-62
2023/05/10 12:40:07;;;;;;;3.70;2.30;;;20.10;63.10;;;;;;4979481;28;20548;-62
2023/05/10 12:42:35;;;;;;;4.25;2.35;;;20.40;62.50;;;;;;4978262;28;20463;-63
2023/05/10 12:45:03;;;;;;;2.80;2.33;;;20.10;59.00;;;;;;4972661;28;20126;-70
2023/05/10 12:47:31;;;;;;;8.80;2.28;;;20.10;59.90;;;;;;4977952;28;20476;-66
2023/05/10 12:49:59;;;;;;;6.03;2.45;;;20.30;60.10;;;;;;4980768;28;20038;-62
2023/05/10 12:52:27;;;;;;;3.90;2.13;;;20.40;58.90;;;;;;4978862;28;20399;-65
2023/05/10 12:54:54;;;;;;;3.33;2.92;;;20.10;60.80;;;;;;4975077;28;20623;-64
2023/05/10 12:57:21;;;;;;;2.53;2.08;;;20.00;58.60;;;;;;4980413;28;20042;-66
2023/05/10 12:59:48;;;;;;;3.80;2.25;;;20.10;58.50;;;;;;4979314;28;20074;-66
2023/05/10 13:02:17;;;;;;;3.40;2.17;;;19.90;59.00;;;;;;4979627;28;20050;-63